sensor_id;sensor_type;location;lat;lon;timestamp;temperature;humidity
16134;DHT22;8172;45.018;5.972;2023-06-19T00:02:05;20.10;64.80
16134;DHT22;8172;45.018;5.972;2023-06-19T00:07:12;20.00;64.90
16134;DHT22;8172;45.018;5.972;2023-06-19T00:12:20;20.00;64.90
16134;DHT22;8172;45.018;5.972;2023-06-19T00:17:28;20.00;65.00
16134;DHT22;8172;45.018;5.972;2023-06-19T00:22:36;20.00;65.00
16134;DHT22;8172;45.018;5.972;2023-06-19T00:27:43;20.00;65.20
16134;DHT22;8172;45.018;5.972;2023-06-19T00:32:51;19.90;65.30
16134;DHT22;8172;45.018;5.972;2023-06-19T00:38:01;19.90;65.30
16134;DHT22;8172;45.018;5.972;2023-06-19T00:43:08;19.90;65.30
16134;DHT22;8172;45.018;5.972;2023-06-19T00:48:16;19.90;65.50
16134;DHT22;8172;45.018;5.972;2023-06-19T00:53:25;19.90;65.60
16134;DHT22;8172;45.018;5.972;2023-06-19T00:58:34;19.90;65.50
16134;DHT22;8172;45.018;5.972;2023-06-19T01:03:41;19.90;65.50
16134;DHT22;8172;45.018;5.972;2023-06-19T01:08:53;19.90;65.60
16134;DHT22;8172;45.018;5.972;2023-06-19T01:14:03;19.90;65.60
16134;DHT22;8172;45.018;5.972;2023-06-19T01:19:15;19.80;66.00
16134;DHT22;8172;45.018;5.972;2023-06-19T01:24:23;19.70;66.40
16134;DHT22;8172;45.018;5.972;2023-06-19T01:29:32;19.60;66.60
16134;DHT22;8172;45.018;5.972;2023-06-19T01:34:41;19.50;66.50
16134;DHT22;8172;45.018;5.972;2023-06-19T01:39:49;19.50;66.40
16134;DHT22;8172;45.018;5.972;2023-06-19T01:44:57;19.50;66.40
16134;DHT22;8172;45.018;5.972;2023-06-19T01:50:05;19.50;66.30
16134;DHT22;8172;45.018;5.972;2023-06-19T01:55:13;19.50;66.30
16134;DHT22;8172;45.018;5.972;2023-06-19T02:00:21;19.50;66.20
16134;DHT22;8172;45.018;5.972;2023-06-19T02:05:30;19.50;66.20
16134;DHT22;8172;45.018;5.972;2023-06-19T02:10:39;19.60;66.00
16134;DHT22;8172;45.018;5.972;2023-06-19T02:15:46;19.60;66.00
16134;DHT22;8172;45.018;5.972;2023-06-19T02:20:54;19.50;66.10
16134;DHT22;8172;45.018;5.972;2023-06-19T02:26:01;19.40;66.20
16134;DHT22;8172;45.018;5.972;2023-06-19T02:31:09;19.50;66.20
16134;DHT22;8172;45.018;5.972;2023-06-19T02:36:16;19.50;66.10
16134;DHT22;8172;45.018;5.972;2023-06-19T02:41:25;19.60;66.10
16134;DHT22;8172;45.018;5.972;2023-06-19T02:46:33;19.60;65.90
16134;DHT22;8172;45.018;5.972;2023-06-19T02:51:40;19.70;65.80
16134;DHT22;8172;45.018;5.972;2023-06-19T02:56:48;19.70;65.70
16134;DHT22;8172;45.018;5.972;2023-06-19T03:01:56;19.70;65.70
16134;DHT22;8172;45.018;5.972;2023-06-19T03:07:04;19.70;65.70
16134;DHT22;8172;45.018;5.972;2023-06-19T03:12:11;19.70;65.60
16134;DHT22;8172;45.018;5.972;2023-06-19T03:17:19;19.70;65.60
16134;DHT22;8172;45.018;5.972;2023-06-19T03:22:26;19.70;65.60
16134;DHT22;8172;45.018;5.972;2023-06-19T03:27:35;19.60;65.70
16134;DHT22;8172;45.018;5.972;2023-06-19T03:32:43;19.60;65.70
16134;DHT22;8172;45.018;5.972;2023-06-19T03:37:52;19.50;65.60
16134;DHT22;8172;45.018;5.972;2023-06-19T03:42:59;19.50;65.60
16134;DHT22;8172;45.018;5.972;2023-06-19T03:48:07;19.50;65.60
16134;DHT22;8172;45.018;5.972;2023-06-19T03:53:15;19.50;65.60
16134;DHT22;8172;45.018;5.972;2023-06-19T03:58:23;19.40;65.60
16134;DHT22;8172;45.018;5.972;2023-06-19T04:03:30;19.30;65.90
16134;DHT22;8172;45.018;5.972;2023-06-19T04:08:40;19.20;66.10
16134;DHT22;8172;45.018;5.972;2023-06-19T04:13:49;19.20;66.20
16134;DHT22;8172;45.018;5.972;2023-06-19T04:18:57;19.20;66.30
16134;DHT22;8172;45.018;5.972;2023-06-19T04:24:05;19.20;66.30
16134;DHT22;8172;45.018;5.972;2023-06-19T04:29:14;19.20;66.40
16134;DHT22;8172;45.018;5.972;2023-06-19T04:34:23;19.30;66.40
16134;DHT22;8172;45.018;5.972;2023-06-19T04:39:31;19.30;66.40
16134;DHT22;8172;45.018;5.972;2023-06-19T04:44:39;19.30;66.30
16134;DHT22;8172;45.018;5.972;2023-06-19T04:49:48;19.30;66.30
16134;DHT22;8172;45.018;5.972;2023-06-19T04:54:55;19.40;66.40
16134;DHT22;8172;45.018;5.972;2023-06-19T05:00:06;19.40;66.40
16134;DHT22;8172;45.018;5.972;2023-06-19T05:05:14;19.40;66.60
16134;DHT22;8172;45.018;5.972;2023-06-19T05:10:22;19.50;66.60
16134;DHT22;8172;45.018;5.972;2023-06-19T05:15:30;19.50;66.20
16134;DHT22;8172;45.018;5.972;2023-06-19T05:20:37;19.50;66.40
16134;DHT22;8172;45.018;5.972;2023-06-19T05:25:45;19.50;66.90
16134;DHT22;8172;45.018;5.972;2023-06-19T05:30:52;19.50;67.00
16134;DHT22;8172;45.018;5.972;2023-06-19T05:35:59;19.50;66.80
16134;DHT22;8172;45.018;5.972;2023-06-19T05:41:08;19.50;67.00
16134;DHT22;8172;45.018;5.972;2023-06-19T05:46:16;19.60;67.30
16134;DHT22;8172;45.018;5.972;2023-06-19T05:51:23;19.70;67.00
16134;DHT22;8172;45.018;5.972;2023-06-19T05:56:32;19.70;66.90
16134;DHT22;8172;45.018;5.972;2023-06-19T06:01:40;19.80;66.90
16134;DHT22;8172;45.018;5.972;2023-06-19T06:06:48;19.80;67.00
16134;DHT22;8172;45.018;5.972;2023-06-19T06:11:55;19.80;66.90
16134;DHT22;8172;45.018;5.972;2023-06-19T06:17:03;19.80;66.70
16134;DHT22;8172;45.018;5.972;2023-06-19T06:22:12;19.90;66.70
16134;DHT22;8172;45.018;5.972;2023-06-19T06:27:20;19.90;66.70
16134;DHT22;8172;45.018;5.972;2023-06-19T06:32:28;20.00;66.90
16134;DHT22;8172;45.018;5.972;2023-06-19T06:37:37;20.10;66.60
16134;DHT22;8172;45.018;5.972;2023-06-19T06:42:45;20.10;66.20
16134;DHT22;8172;45.018;5.972;2023-06-19T06:47:54;20.10;66.20
16134;DHT22;8172;45.018;5.972;2023-06-19T06:53:03;20.10;66.40
16134;DHT22;8172;45.018;5.972;2023-06-19T06:58:10;20.20;66.60
16134;DHT22;8172;45.018;5.972;2023-06-19T07:03:20;20.30;66.50
16134;DHT22;8172;45.018;5.972;2023-06-19T07:08:27;20.40;66.30
16134;DHT22;8172;45.018;5.972;2023-06-19T07:13:35;20.40;66.30
16134;DHT22;8172;45.018;5.972;2023-06-19T07:18:42;20.50;66.20
16134;DHT22;8172;45.018;5.972;2023-06-19T07:23:49;20.60;66.40
16134;DHT22;8172;45.018;5.972;2023-06-19T07:28:57;20.70;66.20
16134;DHT22;8172;45.018;5.972;2023-06-19T07:34:05;20.80;65.90
16134;DHT22;8172;45.018;5.972;2023-06-19T07:39:13;20.90;65.90
16134;DHT22;8172;45.018;5.972;2023-06-19T07:44:20;20.90;66.20
16134;DHT22;8172;45.018;5.972;2023-06-19T07:49:27;20.90;65.70
16134;DHT22;8172;45.018;5.972;2023-06-19T07:54:35;21.00;64.90
16134;DHT22;8172;45.018;5.972;2023-06-19T07:59:42;21.00;64.80
16134;DHT22;8172;45.018;5.972;2023-06-19T08:04:50;21.00;65.40
16134;DHT22;8172;45.018;5.972;2023-06-19T08:09:58;21.00;64.00
16134;DHT22;8172;45.018;5.972;2023-06-19T08:15:08;21.00;64.40
16134;DHT22;8172;45.018;5.972;2023-06-19T08:20:16;21.10;64.20
16134;DHT22;8172;45.018;5.972;2023-06-19T08:25:23;21.10;64.40
16134;DHT22;8172;45.018;5.972;2023-06-19T08:30:30;21.20;64.50
16134;DHT22;8172;45.018;5.972;2023-06-19T08:35:37;21.40;64.20
16134;DHT22;8172;45.018;5.972;2023-06-19T08:40:45;21.50;63.50
16134;DHT22;8172;45.018;5.972;2023-06-19T08:45:56;21.60;63.40
16134;DHT22;8172;45.018;5.972;2023-06-19T08:51:03;21.70;62.80
16134;DHT22;8172;45.018;5.972;2023-06-19T08:56:10;21.70;62.70
16134;DHT22;8172;45.018;5.972;2023-06-19T09:01:19;21.80;62.60
16134;DHT22;8172;45.018;5.972;2023-06-19T09:06:27;21.80;62.80
16134;DHT22;8172;45.018;5.972;2023-06-19T09:11:34;21.80;63.20
16134;DHT22;8172;45.018;5.972;2023-06-19T09:16:42;21.90;63.60
16134;DHT22;8172;45.018;5.972;2023-06-19T09:21:49;22.00;64.60
16134;DHT22;8172;45.018;5.972;2023-06-19T09:37:21;22.10;64.20
16134;DHT22;8172;45.018;5.972;2023-06-19T09:42:29;22.10;63.70
16134;DHT22;8172;45.018;5.972;2023-06-19T09:52:45;22.30;62.90
16134;DHT22;8172;45.018;5.972;2023-06-19T09:57:53;22.40;61.90
16134;DHT22;8172;45.018;5.972;2023-06-19T10:03:02;22.50;61.90
16134;DHT22;8172;45.018;5.972;2023-06-19T10:08:11;22.60;61.50
16134;DHT22;8172;45.018;5.972;2023-06-19T10:13:20;22.70;61.30
16134;DHT22;8172;45.018;5.972;2023-06-19T10:18:31;22.70;60.70
16134;DHT22;8172;45.018;5.972;2023-06-19T10:23:40;22.80;60.80
16134;DHT22;8172;45.018;5.972;2023-06-19T10:28:48;22.80;59.20
16134;DHT22;8172;45.018;5.972;2023-06-19T10:33:55;22.90;59.90
16134;DHT22;8172;45.018;5.972;2023-06-19T10:39:04;23.10;59.50
16134;DHT22;8172;45.018;5.972;2023-06-19T10:44:13;23.20;59.60
16134;DHT22;8172;45.018;5.972;2023-06-19T10:49:21;23.40;58.70
16134;DHT22;8172;45.018;5.972;2023-06-19T10:54:29;23.40;57.90
16134;DHT22;8172;45.018;5.972;2023-06-19T10:59:37;23.50;57.10
16134;DHT22;8172;45.018;5.972;2023-06-19T11:04:47;23.60;56.30
16134;DHT22;8172;45.018;5.972;2023-06-19T11:09:59;23.70;56.20
16134;DHT22;8172;45.018;5.972;2023-06-19T11:15:10;23.80;54.80
16134;DHT22;8172;45.018;5.972;2023-06-19T11:20:18;24.00;55.30
16134;DHT22;8172;45.018;5.972;2023-06-19T11:30:35;24.10;53.60
16134;DHT22;8172;45.018;5.972;2023-06-19T11:40:55;23.90;52.60
16134;DHT22;8172;45.018;5.972;2023-06-19T11:46:06;23.70;52.40
16134;DHT22;8172;45.018;5.972;2023-06-19T11:51:14;23.60;52.10
16134;DHT22;8172;45.018;5.972;2023-06-19T11:56:22;23.50;53.20
16134;DHT22;8172;45.018;5.972;2023-06-19T12:01:32;23.50;52.60
16134;DHT22;8172;45.018;5.972;2023-06-19T12:06:40;23.50;52.20
16134;DHT22;8172;45.018;5.972;2023-06-19T12:11:47;23.40;52.60
16134;DHT22;8172;45.018;5.972;2023-06-19T12:16:57;23.40;53.70
16134;DHT22;8172;45.018;5.972;2023-06-19T12:22:05;23.50;53.00
16134;DHT22;8172;45.018;5.972;2023-06-19T12:27:12;23.60;52.80
16134;DHT22;8172;45.018;5.972;2023-06-19T12:32:20;23.60;52.90
16134;DHT22;8172;45.018;5.972;2023-06-19T12:37:28;23.70;52.70
16134;DHT22;8172;45.018;5.972;2023-06-19T12:42:35;23.80;52.40
16134;DHT22;8172;45.018;5.972;2023-06-19T12:47:44;23.90;52.50
16134;DHT22;8172;45.018;5.972;2023-06-19T12:52:52;24.00;51.90
16134;DHT22;8172;45.018;5.972;2023-06-19T12:58:01;24.00;51.60
16134;DHT22;8172;45.018;5.972;2023-06-19T13:03:10;24.00;52.40
16134;DHT22;8172;45.018;5.972;2023-06-19T13:08:18;24.10;51.90
16134;DHT22;8172;45.018;5.972;2023-06-19T13:13:26;24.10;52.20
16134;DHT22;8172;45.018;5.972;2023-06-19T13:18:35;24.20;52.40
16134;DHT22;8172;45.018;5.972;2023-06-19T13:23:42;24.30;52.50
16134;DHT22;8172;45.018;5.972;2023-06-19T13:28:52;24.30;51.50
16134;DHT22;8172;45.018;5.972;2023-06-19T13:34:00;24.40;51.90
16134;DHT22;8172;45.018;5.972;2023-06-19T13:39:09;24.50;52.50
16134;DHT22;8172;45.018;5.972;2023-06-19T13:44:18;24.70;51.40
16134;DHT22;8172;45.018;5.972;2023-06-19T13:49:26;24.80;50.20
16134;DHT22;8172;45.018;5.972;2023-06-19T13:54:34;24.70;50.40
16134;DHT22;8172;45.018;5.972;2023-06-19T13:59:41;24.60;50.60
16134;DHT22;8172;45.018;5.972;2023-06-19T14:04:49;24.50;50.60
16134;DHT22;8172;45.018;5.972;2023-06-19T14:09:56;24.40;50.90
16134;DHT22;8172;45.018;5.972;2023-06-19T14:15:05;24.30;51.20
16134;DHT22;8172;45.018;5.972;2023-06-19T14:20:14;24.20;51.20
16134;DHT22;8172;45.018;5.972;2023-06-19T14:25:27;24.20;51.20
16134;DHT22;8172;45.018;5.972;2023-06-19T14:30:55;24.20;51.80
16134;DHT22;8172;45.018;5.972;2023-06-19T14:36:03;24.30;51.90
16134;DHT22;8172;45.018;5.972;2023-06-19T14:41:10;24.50;51.20
16134;DHT22;8172;45.018;5.972;2023-06-19T14:46:18;24.70;51.60
16134;DHT22;8172;45.018;5.972;2023-06-19T14:51:27;24.90;49.60
16134;DHT22;8172;45.018;5.972;2023-06-19T14:56:35;24.90;49.50
16134;DHT22;8172;45.018;5.972;2023-06-19T15:01:44;25.00;49.70
16134;DHT22;8172;45.018;5.972;2023-06-19T15:06:52;25.10;48.60
16134;DHT22;8172;45.018;5.972;2023-06-19T15:11:59;25.20;49.40
16134;DHT22;8172;45.018;5.972;2023-06-19T15:17:07;25.10;48.10
16134;DHT22;8172;45.018;5.972;2023-06-19T15:22:14;25.10;48.30
16134;DHT22;8172;45.018;5.972;2023-06-19T15:27:23;25.00;48.40
16134;DHT22;8172;45.018;5.972;2023-06-19T15:32:32;25.00;48.50
16134;DHT22;8172;45.018;5.972;2023-06-19T15:37:39;25.10;48.40
16134;DHT22;8172;45.018;5.972;2023-06-19T15:42:47;25.20;48.70
16134;DHT22;8172;45.018;5.972;2023-06-19T15:47:54;25.10;48.60
16134;DHT22;8172;45.018;5.972;2023-06-19T15:53:03;25.00;48.80
16134;DHT22;8172;45.018;5.972;2023-06-19T15:58:11;24.80;48.70
16134;DHT22;8172;45.018;5.972;2023-06-19T16:03:20;24.70;49.20
16134;DHT22;8172;45.018;5.972;2023-06-19T16:08:28;24.70;49.30
16134;DHT22;8172;45.018;5.972;2023-06-19T16:13:37;24.90;49.80
16134;DHT22;8172;45.018;5.972;2023-06-19T16:18:45;24.90;49.50
16134;DHT22;8172;45.018;5.972;2023-06-19T16:23:52;24.90;49.50
16134;DHT22;8172;45.018;5.972;2023-06-19T16:29:00;24.90;49.80
16134;DHT22;8172;45.018;5.972;2023-06-19T16:34:08;24.80;49.40
16134;DHT22;8172;45.018;5.972;2023-06-19T16:39:16;24.70;49.40
16134;DHT22;8172;45.018;5.972;2023-06-19T16:44:25;24.60;49.30
16134;DHT22;8172;45.018;5.972;2023-06-19T16:49:32;24.60;49.60
16134;DHT22;8172;45.018;5.972;2023-06-19T16:54:40;24.50;49.20
16134;DHT22;8172;45.018;5.972;2023-06-19T16:59:50;24.50;48.60
16134;DHT22;8172;45.018;5.972;2023-06-19T17:05:01;24.40;48.30
16134;DHT22;8172;45.018;5.972;2023-06-19T17:10:09;24.30;48.30
16134;DHT22;8172;45.018;5.972;2023-06-19T17:15:20;24.20;47.90
16134;DHT22;8172;45.018;5.972;2023-06-19T17:20:29;24.20;48.30
16134;DHT22;8172;45.018;5.972;2023-06-19T17:25:41;24.10;47.70
16134;DHT22;8172;45.018;5.972;2023-06-19T17:30:59;23.90;47.30
16134;DHT22;8172;45.018;5.972;2023-06-19T17:36:07;23.80;47.20
16134;DHT22;8172;45.018;5.972;2023-06-19T17:41:16;23.70;47.30
16134;DHT22;8172;45.018;5.972;2023-06-19T17:46:27;23.60;47.70
16134;DHT22;8172;45.018;5.972;2023-06-19T17:51:39;23.50;48.20
16134;DHT22;8172;45.018;5.972;2023-06-19T17:56:51;23.50;48.30
16134;DHT22;8172;45.018;5.972;2023-06-19T18:02:03;23.50;48.40
16134;DHT22;8172;45.018;5.972;2023-06-19T18:07:13;23.50;48.50
16134;DHT22;8172;45.018;5.972;2023-06-19T18:12:23;23.50;48.40
16134;DHT22;8172;45.018;5.972;2023-06-19T18:17:33;23.50;48.50
16134;DHT22;8172;45.018;5.972;2023-06-19T18:22:43;23.40;48.50
16134;DHT22;8172;45.018;5.972;2023-06-19T18:27:51;23.40;48.80
16134;DHT22;8172;45.018;5.972;2023-06-19T18:33:00;23.30;48.70
16134;DHT22;8172;45.018;5.972;2023-06-19T18:38:10;23.20;48.60
16134;DHT22;8172;45.018;5.972;2023-06-19T18:43:21;23.20;48.80
16134;DHT22;8172;45.018;5.972;2023-06-19T18:48:29;23.10;48.90
16134;DHT22;8172;45.018;5.972;2023-06-19T18:53:38;23.00;49.10
16134;DHT22;8172;45.018;5.972;2023-06-19T18:58:48;23.00;49.30
16134;DHT22;8172;45.018;5.972;2023-06-19T19:03:58;23.00;49.30
16134;DHT22;8172;45.018;5.972;2023-06-19T19:09:10;22.90;49.30
16134;DHT22;8172;45.018;5.972;2023-06-19T19:14:20;22.80;49.50
16134;DHT22;8172;45.018;5.972;2023-06-19T19:19:29;22.80;49.70
16134;DHT22;8172;45.018;5.972;2023-06-19T19:24:42;22.80;49.70
16134;DHT22;8172;45.018;5.972;2023-06-19T19:29:56;22.70;50.10
16134;DHT22;8172;45.018;5.972;2023-06-19T19:35:07;22.70;50.40
16134;DHT22;8172;45.018;5.972;2023-06-19T19:40:15;22.60;50.40
16134;DHT22;8172;45.018;5.972;2023-06-19T19:45:24;22.60;50.70
16134;DHT22;8172;45.018;5.972;2023-06-19T19:50:33;22.60;50.60
16134;DHT22;8172;45.018;5.972;2023-06-19T19:55:40;22.50;50.90
16134;DHT22;8172;45.018;5.972;2023-06-19T20:00:47;22.50;51.50
16134;DHT22;8172;45.018;5.972;2023-06-19T20:05:55;22.50;51.50
16134;DHT22;8172;45.018;5.972;2023-06-19T20:11:03;22.50;51.60
16134;DHT22;8172;45.018;5.972;2023-06-19T20:16:10;22.50;52.00
16134;DHT22;8172;45.018;5.972;2023-06-19T20:21:17;22.50;51.90
16134;DHT22;8172;45.018;5.972;2023-06-19T20:26:27;22.40;52.20
16134;DHT22;8172;45.018;5.972;2023-06-19T20:31:41;22.40;52.30
16134;DHT22;8172;45.018;5.972;2023-06-19T20:36:51;22.40;52.50
16134;DHT22;8172;45.018;5.972;2023-06-19T20:41:58;22.40;52.80
16134;DHT22;8172;45.018;5.972;2023-06-19T20:47:07;22.30;52.90
16134;DHT22;8172;45.018;5.972;2023-06-19T20:52:16;22.30;53.00
16134;DHT22;8172;45.018;5.972;2023-06-19T20:57:26;22.20;52.90
16134;DHT22;8172;45.018;5.972;2023-06-19T21:02:34;22.20;52.90
16134;DHT22;8172;45.018;5.972;2023-06-19T21:07:43;22.10;53.00
16134;DHT22;8172;45.018;5.972;2023-06-19T21:12:52;22.00;53.20
16134;DHT22;8172;45.018;5.972;2023-06-19T21:18:01;22.10;53.60
16134;DHT22;8172;45.018;5.972;2023-06-19T21:23:08;22.10;53.50
16134;DHT22;8172;45.018;5.972;2023-06-19T21:28:20;22.00;53.40
16134;DHT22;8172;45.018;5.972;2023-06-19T21:33:30;22.00;53.80
16134;DHT22;8172;45.018;5.972;2023-06-19T21:38:41;22.10;53.70
16134;DHT22;8172;45.018;5.972;2023-06-19T21:43:50;22.10;53.60
16134;DHT22;8172;45.018;5.972;2023-06-19T21:48:58;22.00;53.70
16134;DHT22;8172;45.018;5.972;2023-06-19T21:54:07;22.00;53.50
16134;DHT22;8172;45.018;5.972;2023-06-19T21:59:16;22.00;53.70
16134;DHT22;8172;45.018;5.972;2023-06-19T22:04:23;22.00;53.70
16134;DHT22;8172;45.018;5.972;2023-06-19T22:09:32;22.00;53.80
16134;DHT22;8172;45.018;5.972;2023-06-19T22:14:40;22.00;53.60
16134;DHT22;8172;45.018;5.972;2023-06-19T22:19:49;21.90;53.80
16134;DHT22;8172;45.018;5.972;2023-06-19T22:24:57;21.90;54.10
16134;DHT22;8172;45.018;5.972;2023-06-19T22:30:06;21.90;53.60
16134;DHT22;8172;45.018;5.972;2023-06-19T22:35:13;21.90;53.60
16134;DHT22;8172;45.018;5.972;2023-06-19T22:40:21;21.80;53.50
16134;DHT22;8172;45.018;5.972;2023-06-19T22:45:29;21.80;53.00
16134;DHT22;8172;45.018;5.972;2023-06-19T22:50:38;21.80;52.90
16134;DHT22;8172;45.018;5.972;2023-06-19T22:55:46;21.80;53.10
16134;DHT22;8172;45.018;5.972;2023-06-19T23:00:54;21.80;52.50
16134;DHT22;8172;45.018;5.972;2023-06-19T23:06:04;21.80;51.80
16134;DHT22;8172;45.018;5.972;2023-06-19T23:11:12;21.70;51.60
16134;DHT22;8172;45.018;5.972;2023-06-19T23:16:20;21.70;51.30
16134;DHT22;8172;45.018;5.972;2023-06-19T23:21:27;21.70;50.70
16134;DHT22;8172;45.018;5.972;2023-06-19T23:26:36;21.70;50.50
16134;DHT22;8172;45.018;5.972;2023-06-19T23:31:44;21.60;50.30
16134;DHT22;8172;45.018;5.972;2023-06-19T23:36:55;21.60;50.20
16134;DHT22;8172;45.018;5.972;2023-06-19T23:42:05;21.60;50.30
16134;DHT22;8172;45.018;5.972;2023-06-19T23:47:12;21.60;50.40
16134;DHT22;8172;45.018;5.972;2023-06-19T23:52:21;21.50;50.30
16134;DHT22;8172;45.018;5.972;2023-06-19T23:57:31;21.50;50.00
